createdAt,value
2019-04-05T00:01:04.828Z,78.78
2019-04-05T00:01:54.421Z,76.16
2019-04-05T00:02:54.412Z,75.42
2019-04-05T00:03:54.402Z,76.47
2019-04-05T00:04:54.392Z,75.32
2019-04-05T00:05:54.387Z,74.97
2019-04-05T00:06:54.406Z,73.92
2019-04-05T00:07:54.357Z,74.13
2019-04-05T00:08:54.351Z,72.77
2019-04-05T00:09:54.342Z,73.50
2019-04-05T00:10:54.331Z,74.02
2019-04-05T00:11:54.316Z,74.76
2019-04-05T00:12:54.314Z,76.02
2019-04-05T00:13:54.297Z,76.75
2019-04-05T00:14:54.282Z,77.38
2019-04-05T00:15:54.285Z,76.65
2019-04-05T00:16:54.263Z,76.43
2019-04-05T00:17:54.269Z,76.96
2019-04-05T00:18:54.284Z,75.92
2019-04-05T00:19:54.236Z,75.70
2019-04-05T00:20:54.218Z,74.87
2019-04-05T00:21:54.219Z,74.55
2019-04-05T00:22:54.203Z,74.97
2019-04-05T00:23:54.186Z,75.39
2019-04-05T00:24:54.186Z,75.49
2019-04-05T00:25:54.170Z,74.02
2019-04-05T00:26:54.155Z,74.34
2019-04-05T00:27:54.146Z,75.21
2019-04-05T00:28:54.186Z,75.39
2019-04-05T00:29:54.134Z,75.70
2019-04-05T00:30:54.118Z,76.12
2019-04-05T00:32:04.365Z,78.36
2019-04-05T00:32:54.089Z,79.62
2019-04-05T00:33:54.088Z,79.10
2019-04-05T00:34:54.085Z,79.03
2019-04-05T00:35:54.066Z,79.66
2019-04-05T00:36:54.056Z,80.49
2019-04-05T00:37:54.044Z,80.53
2019-04-05T00:38:54.034Z,80.91
2019-04-05T00:39:54.027Z,81.48
2019-04-05T00:40:54.031Z,81.79
2019-04-05T00:41:53.998Z,82.35
2019-04-05T00:42:53.989Z,82.35
2019-04-05T00:43:53.979Z,82.88
2019-04-05T00:44:53.971Z,82.25
2019-04-05T00:45:53.954Z,78.99
2019-04-05T00:46:53.962Z,81.20
2019-04-05T00:47:53.935Z,83.58
2019-04-05T00:48:53.930Z,84.45
2019-04-05T00:49:53.912Z,84.31
2019-04-05T00:50:53.908Z,83.68
2019-04-05T00:51:53.899Z,80.78
2019-04-05T00:52:53.921Z,79.62
2019-04-05T00:53:53.875Z,81.58
2019-04-05T00:54:53.862Z,81.09
2019-04-05T00:55:53.850Z,81.41
2019-04-05T00:56:53.839Z,81.51
2019-04-05T00:57:53.828Z,81.83
2019-04-05T00:58:53.826Z,81.16
2019-04-05T00:59:53.812Z,80.74
2019-04-05T01:00:53.798Z,78.85
2019-04-05T01:01:53.794Z,78.64
2019-04-05T01:03:04.379Z,78.53
2019-04-05T01:03:53.768Z,79.34
2019-04-05T01:04:53.752Z,78.92
2019-04-05T01:05:53.743Z,78.39
2019-04-05T01:06:53.737Z,76.72
2019-04-05T01:07:53.731Z,75.35
2019-04-05T01:08:53.722Z,76.29
2019-04-05T01:09:53.740Z,78.89
2019-04-05T01:10:53.694Z,77.42
2019-04-05T01:11:53.682Z,77.62
2019-04-05T01:12:53.674Z,76.89
2019-04-05T01:13:53.664Z,77.31
2019-04-05T01:14:53.650Z,76.37
2019-04-05T01:15:53.679Z,78.05
2019-04-05T01:16:53.629Z,78.47
2019-04-05T01:17:53.626Z,76.51
2019-04-05T01:18:53.603Z,75.42
2019-04-05T01:19:53.599Z,73.43
2019-04-05T01:20:53.590Z,72.28
2019-04-05T01:21:53.585Z,74.27
2019-04-05T01:22:53.561Z,76.37
2019-04-05T01:23:53.559Z,77.00
2019-04-05T01:24:53.545Z,77.00
2019-04-05T01:25:53.531Z,77.10
2019-04-05T01:26:53.563Z,77.21
2019-04-05T01:27:53.515Z,76.68
2019-04-05T01:28:53.508Z,76.51
2019-04-05T01:29:53.492Z,77.14
2019-04-05T01:30:53.480Z,77.34
2019-04-05T01:31:53.467Z,77.87
2019-04-05T01:32:53.493Z,78.71
2019-04-05T01:34:05.519Z,76.54
2019-04-05T01:34:53.445Z,77.28
2019-04-05T01:35:53.430Z,78.22
2019-04-05T01:36:53.420Z,78.64
2019-04-05T01:37:53.410Z,78.64
2019-04-05T01:38:53.470Z,78.08
2019-04-05T01:39:53.383Z,77.66
2019-04-05T01:40:53.377Z,77.45
2019-04-05T01:41:53.362Z,79.13
2019-04-05T01:42:53.352Z,79.13
2019-04-05T01:43:53.342Z,79.66
2019-04-05T01:44:53.352Z,80.60
2019-04-05T01:45:54.265Z,79.44
2019-04-05T01:46:53.313Z,78.50
2019-04-05T01:47:53.299Z,78.39
2019-04-05T01:48:53.293Z,77.24
2019-04-05T01:49:53.276Z,75.78
2019-04-05T01:50:53.276Z,76.82
2019-04-05T01:51:53.257Z,77.98
2019-04-05T01:52:53.246Z,76.72
2019-04-05T01:53:53.239Z,77.28
2019-04-05T01:54:53.233Z,77.03
2019-04-05T01:55:53.227Z,75.56
2019-04-05T01:56:53.203Z,74.13
2019-04-05T01:57:53.190Z,74.09
2019-04-05T01:58:53.181Z,72.83
2019-04-05T01:59:53.175Z,73.15
2019-04-05T02:00:53.179Z,75.25
2019-04-05T02:01:53.171Z,75.11
2019-04-05T02:02:53.143Z,75.78
2019-04-05T02:03:53.131Z,74.51
2019-04-05T02:05:03.159Z,73.08
2019-04-05T02:05:53.113Z,74.09
2019-04-05T02:06:53.116Z,72.86
2019-04-05T02:07:53.091Z,73.50
2019-04-05T02:08:53.081Z,73.78
2019-04-05T02:09:53.069Z,74.13
2019-04-05T02:10:53.055Z,74.44
2019-04-05T02:11:53.046Z,75.49
2019-04-05T02:12:53.075Z,75.18
2019-04-05T02:13:53.025Z,74.97
2019-04-05T02:14:53.020Z,75.07
2019-04-05T02:16:05.332Z,76.12
2019-04-05T02:16:53.990Z,76.57
2019-04-05T02:17:52.987Z,78.47
2019-04-05T02:18:52.979Z,78.47
2019-04-05T02:19:52.962Z,79.21
2019-04-05T02:20:52.950Z,79.83
2019-04-05T02:21:52.937Z,81.02
2019-04-05T02:22:52.928Z,80.60
2019-04-05T02:23:52.955Z,81.45
2019-04-05T02:24:52.906Z,81.24
2019-04-05T02:25:52.903Z,81.34
2019-04-05T02:26:52.883Z,81.13
2019-04-05T02:27:52.871Z,81.02
2019-04-05T02:28:52.867Z,81.76
2019-04-05T02:29:52.865Z,82.39
2019-04-05T02:30:52.870Z,81.34
2019-04-05T02:31:52.844Z,82.39
2019-04-05T02:32:52.821Z,82.35
2019-04-05T02:33:52.815Z,81.41
2019-04-05T02:34:52.804Z,81.41
2019-04-05T02:36:03.405Z,80.57
2019-04-05T02:36:52.781Z,79.94
2019-04-05T02:37:52.774Z,78.99
2019-04-05T02:38:52.759Z,78.99
2019-04-05T02:39:52.759Z,80.99
2019-04-05T02:40:52.756Z,80.71
2019-04-05T02:41:52.733Z,80.50
2019-04-05T02:42:52.715Z,80.40
2019-04-05T02:43:52.719Z,81.13
2019-04-05T02:44:52.698Z,81.34
2019-04-05T02:45:52.847Z,81.13
2019-04-05T02:46:52.691Z,81.24
2019-04-05T02:47:52.671Z,80.60
2019-04-05T02:48:52.651Z,81.24
2019-04-05T02:49:52.645Z,81.02
2019-04-05T02:50:52.631Z,81.13
2019-04-05T02:51:52.679Z,80.71
2019-04-05T02:52:52.618Z,81.02
2019-04-05T02:53:52.606Z,81.45
2019-04-05T02:54:52.594Z,80.60
2019-04-05T02:55:52.660Z,80.82
2019-04-05T02:56:52.572Z,79.24
2019-04-05T02:57:52.575Z,78.08
2019-04-05T02:58:52.545Z,79.13
2019-04-05T02:59:52.533Z,79.87
2019-04-05T03:00:52.529Z,80.36
2019-04-05T03:01:52.513Z,79.41
2019-04-05T03:02:52.541Z,78.71
2019-04-05T03:03:52.518Z,79.55
2019-04-05T03:04:52.480Z,79.66
2019-04-05T03:05:52.481Z,80.08
2019-04-05T03:07:02.783Z,80.18
2019-04-05T03:07:52.455Z,79.77
2019-04-05T03:08:52.458Z,79.77
2019-04-05T03:09:52.428Z,79.13
2019-04-05T03:10:52.440Z,79.24
2019-04-05T03:11:52.414Z,79.24
2019-04-05T03:12:52.398Z,79.06
2019-04-05T03:13:52.429Z,79.06
2019-04-05T03:14:52.386Z,80.60
2019-04-05T03:15:52.372Z,80.82
2019-04-05T03:16:52.360Z,81.02
2019-04-05T03:17:52.343Z,80.60
2019-04-05T03:18:52.347Z,79.83
2019-04-05T03:19:52.375Z,79.35
2019-04-05T03:20:52.311Z,78.92
2019-04-05T03:21:52.298Z,79.21
2019-04-05T03:22:52.290Z,78.89
2019-04-05T03:23:52.290Z,79.10
2019-04-05T03:24:52.279Z,79.10
2019-04-05T03:25:52.371Z,78.36
2019-04-05T03:26:52.252Z,78.47
2019-04-05T03:27:52.251Z,78.47
2019-04-05T03:28:52.233Z,77.59
2019-04-05T03:29:52.219Z,76.96
2019-04-05T03:30:52.208Z,77.59
2019-04-05T03:31:52.237Z,77.73
2019-04-05T03:32:52.194Z,76.65
2019-04-05T03:33:52.190Z,76.02
2019-04-05T03:34:52.166Z,76.33
2019-04-05T03:35:52.161Z,76.86
2019-04-05T03:36:52.245Z,75.07
2019-04-05T03:38:03.443Z,74.44
2019-04-05T03:38:52.142Z,74.37
2019-04-05T03:39:52.114Z,75.81
2019-04-05T03:40:59.079Z,75.38
2019-04-05T03:41:52.095Z,75.60
2019-04-05T03:42:52.119Z,76.43
2019-04-05T03:43:52.100Z,77.66
2019-04-05T03:44:52.060Z,77.03
2019-04-05T03:45:52.045Z,77.03
2019-04-05T03:46:56.814Z,75.78
2019-04-05T03:47:53.043Z,76.51
2019-04-05T03:48:52.025Z,74.83
2019-04-05T03:49:52.012Z,76.93
2019-04-05T03:50:51.993Z,75.56
2019-04-05T03:51:51.991Z,76.93
2019-04-05T03:52:52.015Z,76.61
2019-04-05T03:53:51.975Z,77.56
2019-04-05T03:54:51.957Z,77.14
2019-04-05T03:55:51.950Z,77.45
2019-04-05T03:56:51.935Z,76.51
2019-04-05T03:57:51.935Z,77.48
2019-04-05T03:58:51.920Z,77.07
2019-04-05T03:59:51.902Z,77.03
2019-04-05T04:00:51.889Z,76.93
2019-04-05T04:01:51.883Z,76.61
2019-04-05T04:02:51.880Z,77.03
2019-04-05T04:03:51.899Z,75.25
2019-04-05T04:04:51.856Z,75.53
2019-04-05T04:05:51.843Z,75.04
2019-04-05T04:06:51.825Z,75.74
2019-04-05T04:07:51.828Z,75.42
2019-04-05T04:08:51.821Z,76.16
2019-04-05T04:09:51.807Z,75.01
2019-04-05T04:10:51.790Z,77.00
2019-04-05T04:12:02.027Z,76.16
2019-04-05T04:12:51.763Z,77.00
2019-04-05T04:13:51.755Z,76.05
2019-04-05T04:14:51.784Z,74.79
2019-04-05T04:15:51.732Z,75.21
2019-04-05T04:16:51.725Z,74.58
2019-04-05T04:17:51.727Z,74.06
2019-04-05T04:18:51.700Z,74.06
2019-04-05T04:19:51.693Z,74.87
2019-04-05T04:20:51.720Z,76.79
2019-04-05T04:21:51.682Z,76.05
2019-04-05T04:22:51.665Z,75.39
2019-04-05T04:23:51.651Z,74.02
2019-04-05T04:24:51.655Z,73.29
2019-04-05T04:25:51.627Z,73.19
2019-04-05T04:26:51.632Z,71.61
2019-04-05T04:27:51.620Z,71.83
2019-04-05T04:28:51.703Z,72.34
2019-04-05T04:29:51.585Z,71.72
2019-04-05T04:30:51.576Z,71.48
2019-04-05T04:31:51.600Z,71.48
2019-04-05T04:32:51.555Z,71.58
2019-04-05T04:33:51.546Z,70.95
2019-04-05T04:34:58.519Z,71.06
2019-04-05T04:35:58.501Z,72.28
2019-04-05T04:36:51.512Z,71.86
2019-04-05T04:37:51.506Z,71.03
2019-04-05T04:38:51.493Z,72.28
2019-04-05T04:39:51.478Z,72.28
2019-04-05T04:40:51.474Z,72.18
2019-04-05T04:41:51.461Z,72.70
2019-04-05T04:42:51.463Z,71.97
2019-04-05T04:43:51.439Z,72.28
2019-04-05T04:44:51.427Z,71.41
2019-04-05T04:45:51.415Z,70.05
2019-04-05T04:46:51.406Z,69.95
2019-04-05T04:47:51.392Z,70.02
2019-04-05T04:48:51.425Z,69.49
2019-04-05T04:49:51.371Z,68.63
2019-04-05T04:50:51.364Z,67.79
2019-04-05T04:51:51.351Z,68.73
2019-04-05T04:52:51.345Z,68.21
2019-04-05T04:53:51.329Z,67.86
2019-04-05T04:54:51.324Z,67.65
2019-04-05T04:55:51.309Z,66.71
2019-04-05T04:56:51.383Z,67.97
2019-04-05T04:57:51.287Z,67.86
2019-04-05T04:58:51.278Z,67.34
2019-04-05T04:59:51.298Z,67.76
2019-04-05T05:00:51.257Z,67.24
2019-04-05T05:01:51.239Z,67.34
2019-04-05T05:02:51.246Z,68.18
2019-04-05T05:03:51.227Z,67.03
2019-04-05T05:04:51.213Z,67.34
2019-04-05T05:05:51.252Z,67.44
2019-04-05T05:07:01.204Z,67.44
2019-04-05T05:07:51.179Z,66.50
2019-04-05T05:08:51.165Z,67.13
2019-04-05T05:09:51.156Z,66.53
2019-04-05T05:10:51.143Z,66.50
2019-04-05T05:11:51.156Z,66.89
2019-04-05T05:12:51.127Z,66.61
2019-04-05T05:13:51.115Z,66.71
2019-04-05T05:14:51.106Z,66.93
2019-04-05T05:15:51.093Z,66.68
2019-04-05T05:16:51.087Z,66.06
2019-04-05T05:17:58.559Z,66.58
2019-04-05T05:18:52.084Z,65.74
2019-04-05T05:19:51.051Z,66.03
2019-04-05T05:20:51.041Z,65.40
2019-04-05T05:21:51.037Z,66.16
2019-04-05T05:22:51.018Z,66.24
2019-04-05T05:23:51.017Z,65.71
2019-04-05T05:24:51.000Z,65.71
2019-04-05T05:25:50.991Z,65.61
2019-04-05T05:26:50.973Z,65.61
2019-04-05T05:27:50.962Z,65.19
2019-04-05T05:28:50.969Z,64.67
2019-04-05T05:29:50.942Z,64.77
2019-04-05T05:30:50.935Z,64.98
2019-04-05T05:31:50.935Z,64.87
2019-04-05T05:32:50.911Z,64.56
2019-04-05T05:33:50.900Z,64.84
2019-04-05T05:35:01.394Z,64.74
2019-04-05T05:35:51.881Z,64.64
2019-04-05T05:36:50.865Z,64.74
2019-04-05T05:38:00.700Z,64.22
2019-04-05T05:38:50.843Z,64.32
2019-04-05T05:39:50.840Z,64.64
2019-04-05T05:40:50.866Z,64.67
2019-04-05T05:41:50.848Z,64.64
2019-04-05T05:42:50.803Z,64.64
2019-04-05T05:43:50.793Z,65.06
2019-04-05T05:44:50.778Z,64.95
2019-04-05T05:45:50.767Z,65.06
2019-04-05T05:46:50.800Z,65.06
2019-04-05T05:47:52.318Z,64.74
2019-04-05T05:48:50.735Z,64.64
2019-04-05T05:49:50.724Z,64.71
2019-04-05T05:50:50.716Z,64.29
2019-04-05T05:51:50.707Z,64.29
2019-04-05T05:52:50.707Z,64.71
2019-04-05T05:53:50.680Z,65.03
2019-04-05T05:54:50.678Z,64.89
2019-04-05T05:55:50.660Z,64.61
2019-04-05T05:56:50.645Z,64.29
2019-04-05T05:57:54.288Z,64.29
2019-04-05T05:58:50.667Z,64.29
2019-04-05T05:59:50.613Z,64.16
2019-04-05T06:00:50.610Z,64.37
2019-04-05T06:01:50.595Z,63.75
2019-04-05T06:02:50.662Z,64.47
2019-04-05T06:03:50.573Z,64.16
2019-04-05T06:04:50.586Z,63.95
2019-04-05T06:05:58.323Z,64.16
2019-04-05T06:06:51.550Z,64.37
2019-04-05T06:07:50.530Z,64.45
2019-04-05T06:09:00.608Z,64.65
2019-04-05T06:09:50.507Z,64.23
2019-04-05T06:10:50.505Z,64.03
2019-04-05T06:11:50.486Z,64.23
2019-04-05T06:12:50.476Z,64.13
2019-04-05T06:13:50.472Z,63.89
2019-04-05T06:14:50.461Z,63.92
2019-04-05T06:15:50.460Z,63.68
2019-04-05T06:16:50.433Z,63.68
2019-04-05T06:17:50.421Z,63.68
2019-04-05T06:18:50.437Z,63.68
2019-04-05T06:19:50.403Z,63.65
2019-04-05T06:20:50.404Z,63.45
2019-04-05T06:21:50.511Z,63.45
2019-04-05T06:22:50.387Z,63.10
2019-04-05T06:23:50.360Z,62.45
2019-04-05T06:24:50.343Z,62.22
2019-04-05T06:25:50.337Z,60.57
2019-04-05T06:26:50.329Z,59.50
2019-04-05T06:27:50.355Z,58.31
2019-04-05T06:28:50.336Z,56.41
2019-04-05T06:29:50.298Z,56.29
2019-04-05T06:30:50.289Z,56.08
2019-04-05T06:31:50.290Z,56.05
2019-04-05T06:32:50.362Z,55.12
2019-04-05T06:33:50.261Z,55.20
2019-04-05T06:34:50.236Z,54.58
2019-04-05T06:35:50.231Z,54.14
2019-04-05T06:36:51.285Z,54.03
2019-04-05T06:37:50.259Z,53.80
2019-04-05T06:38:50.199Z,52.95
2019-04-05T06:40:00.724Z,52.87
2019-04-05T06:40:50.172Z,53.49
2019-04-05T06:41:50.165Z,52.85
2019-04-05T06:42:50.147Z,52.51
2019-04-05T06:43:50.179Z,52.80
2019-04-05T06:44:50.136Z,51.23
2019-04-05T06:45:50.154Z,51.64
2019-04-05T06:46:50.172Z,51.54
2019-04-05T06:47:50.097Z,51.64
2019-04-05T06:48:50.086Z,50.99
2019-04-05T06:49:50.116Z,50.92
2019-04-05T06:50:50.068Z,50.81
2019-04-05T06:51:50.104Z,50.92
2019-04-05T06:52:50.052Z,51.41
2019-04-05T06:53:50.035Z,49.76
2019-04-05T06:54:50.024Z,50.79
2019-04-05T06:55:50.040Z,50.79
2019-04-05T06:56:49.998Z,50.17
2019-04-05T06:57:49.988Z,49.84
2019-04-05T06:58:49.982Z,50.02
2019-04-05T06:59:49.962Z,49.90
2019-04-05T07:00:56.833Z,49.15
2019-04-05T07:01:50.956Z,48.74
2019-04-05T07:02:49.932Z,48.94
2019-04-05T07:03:49.933Z,47.77
2019-04-05T07:04:49.905Z,48.07
2019-04-05T07:05:49.897Z,47.44
2019-04-05T07:06:50.040Z,47.44
2019-04-05T07:07:49.878Z,47.54
2019-04-05T07:08:54.106Z,47.72
2019-04-05T07:09:49.869Z,46.15
2019-04-05T07:11:00.589Z,47.00
2019-04-05T07:11:49.831Z,46.57
2019-04-05T07:12:49.855Z,46.36
2019-04-05T07:13:49.822Z,46.24
2019-04-05T07:14:49.799Z,46.03
2019-04-05T07:15:49.794Z,45.81
2019-04-05T07:16:49.806Z,45.83
2019-04-05T07:17:49.824Z,45.93
2019-04-05T07:18:49.763Z,46.55
2019-04-05T07:19:49.764Z,46.14
2019-04-05T07:20:49.740Z,45.81
2019-04-05T07:21:49.725Z,45.60
2019-04-05T07:22:49.707Z,44.24
2019-04-05T07:23:49.726Z,45.04
2019-04-05T07:24:49.726Z,45.09
2019-04-05T07:25:49.675Z,45.83
2019-04-05T07:26:50.267Z,45.93
2019-04-05T07:27:49.658Z,45.93
2019-04-05T07:28:49.691Z,45.81
2019-04-05T07:29:49.639Z,45.07
2019-04-05T07:30:49.627Z,43.94
2019-04-05T07:31:49.613Z,45.45
2019-04-05T07:32:49.607Z,45.03
2019-04-05T07:33:49.605Z,43.37
2019-04-05T07:34:49.589Z,42.61
2019-04-05T07:35:49.569Z,42.81
2019-04-05T07:36:49.584Z,42.18
2019-04-05T07:37:49.553Z,42.30
2019-04-05T07:38:49.541Z,42.40
2019-04-05T07:39:49.535Z,42.07
2019-04-05T07:40:49.558Z,42.52
2019-04-05T07:42:00.770Z,42.61
2019-04-05T07:42:49.493Z,42.42
2019-04-05T07:43:49.480Z,42.19
2019-04-05T07:44:49.477Z,42.63
2019-04-05T07:45:49.454Z,43.14
2019-04-05T07:46:49.482Z,41.56
2019-04-05T07:47:49.431Z,42.19
2019-04-05T07:48:49.428Z,42.10
2019-04-05T07:49:49.438Z,42.22
2019-04-05T07:50:49.417Z,42.13
2019-04-05T07:51:49.397Z,42.25
2019-04-05T07:52:49.391Z,42.54
2019-04-05T07:53:49.368Z,42.63
2019-04-05T07:54:49.357Z,41.87
2019-04-05T07:55:49.357Z,40.91
2019-04-05T07:56:49.343Z,40.46
2019-04-05T07:57:49.333Z,39.34
2019-04-05T07:58:49.322Z,40.26
2019-04-05T07:59:49.303Z,40.34
2019-04-05T08:00:49.294Z,38.59
2019-04-05T08:01:49.298Z,39.10
2019-04-05T08:02:49.286Z,38.67
2019-04-05T08:03:49.265Z,37.23
2019-04-05T08:04:49.247Z,37.02
2019-04-05T08:05:49.241Z,36.92
2019-04-05T08:06:49.261Z,37.02
2019-04-05T08:07:49.240Z,38.46
2019-04-05T08:08:49.213Z,36.60
2019-04-05T08:09:49.200Z,36.16
2019-04-05T08:10:49.189Z,36.05
2019-04-05T08:11:49.173Z,37.19
2019-04-05T08:13:00.627Z,36.88
2019-04-05T08:13:49.148Z,36.66
2019-04-05T08:14:49.145Z,35.95
2019-04-05T08:15:49.130Z,36.32
2019-04-05T08:16:49.129Z,37.02
2019-04-05T08:17:49.109Z,35.02
2019-04-05T08:18:57.742Z,36.12
2019-04-05T08:19:50.107Z,36.43
2019-04-05T08:20:49.077Z,36.04
2019-04-05T08:21:49.064Z,35.63
2019-04-05T08:22:49.059Z,35.82
2019-04-05T08:23:49.051Z,36.31
2019-04-05T08:24:49.080Z,35.19
2019-04-05T08:25:49.027Z,36.82
2019-04-05T08:26:49.010Z,35.39
2019-04-05T08:27:48.998Z,36.10
2019-04-05T08:28:48.992Z,34.77
2019-04-05T08:29:48.981Z,34.78
2019-04-05T08:30:49.007Z,34.88
2019-04-05T08:31:48.958Z,34.99
2019-04-05T08:32:49.610Z,36.19
2019-04-05T08:33:48.931Z,34.74
2019-04-05T08:34:49.582Z,35.22
2019-04-05T08:35:49.586Z,34.70
2019-04-05T08:36:48.909Z,34.50
2019-04-05T08:37:49.048Z,34.78
2019-04-05T08:38:48.883Z,34.17
2019-04-05T08:39:49.597Z,34.06
2019-04-05T08:40:48.898Z,32.12
2019-04-05T08:41:48.927Z,30.87
2019-04-05T08:42:49.589Z,30.35
2019-04-05T08:43:59.489Z,30.67
2019-04-05T08:44:48.913Z,31.19
2019-04-05T08:45:48.809Z,32.22
2019-04-05T08:46:49.157Z,31.51
2019-04-05T08:47:49.645Z,32.82
2019-04-05T08:48:48.776Z,31.49
2019-04-05T08:49:48.786Z,31.22
2019-04-05T08:50:48.756Z,32.67
2019-04-05T08:51:48.745Z,32.70
2019-04-05T08:52:48.807Z,32.34
2019-04-05T08:53:49.630Z,30.68
2019-04-05T08:54:48.712Z,30.98
2019-04-05T08:55:48.706Z,30.46
2019-04-05T08:56:48.760Z,30.76
2019-04-05T08:57:48.677Z,30.91
2019-04-05T08:58:48.780Z,31.52
2019-04-05T08:59:48.653Z,32.10
2019-04-05T09:00:48.656Z,30.70
2019-04-05T09:01:48.636Z,30.99
2019-04-05T09:02:48.759Z,31.07
2019-04-05T09:03:48.669Z,30.89
2019-04-05T09:04:48.628Z,31.01
2019-04-05T09:05:48.592Z,32.17
2019-04-05T09:06:48.587Z,31.42
2019-04-05T09:07:48.572Z,31.19
2019-04-05T09:08:48.568Z,31.64
2019-04-05T09:09:48.551Z,30.34
2019-04-05T09:10:48.587Z,29.82
2019-04-05T09:11:48.565Z,30.40
2019-04-05T09:12:48.525Z,30.18
2019-04-05T09:13:48.516Z,28.87
2019-04-05T09:14:58.931Z,28.41
2019-04-05T09:15:48.491Z,29.82
2019-04-05T09:16:48.485Z,29.92
2019-04-05T09:17:48.476Z,29.88
2019-04-05T09:18:49.584Z,28.06
2019-04-05T09:19:48.446Z,27.53
2019-04-05T09:20:48.441Z,27.83
2019-04-05T09:21:48.470Z,28.12
2019-04-05T09:22:48.421Z,27.14
2019-04-05T09:23:48.408Z,28.15
2019-04-05T09:24:48.397Z,29.14
2019-04-05T09:25:48.383Z,27.93
2019-04-05T09:26:48.375Z,28.23
2019-04-05T09:27:48.406Z,27.75
2019-04-05T09:28:48.362Z,29.16
2019-04-05T09:29:48.343Z,28.14
2019-04-05T09:30:48.335Z,27.86
2019-04-05T09:31:48.320Z,28.45
2019-04-05T09:32:48.309Z,28.92
2019-04-05T09:33:48.321Z,28.30
2019-04-05T09:34:48.291Z,27.78
2019-04-05T09:35:48.287Z,25.85
2019-04-05T09:36:48.274Z,25.63
2019-04-05T09:37:48.264Z,25.99
2019-04-05T09:38:48.252Z,26.82
2019-04-05T09:39:48.277Z,25.51
2019-04-05T09:40:48.227Z,26.66
2019-04-05T09:41:48.220Z,26.46
2019-04-05T09:42:48.207Z,27.86
2019-04-05T09:43:48.194Z,27.67
2019-04-05T09:44:48.193Z,27.15
2019-04-05T09:45:58.742Z,27.23
2019-04-05T09:46:51.017Z,25.96
2019-04-05T09:47:48.160Z,26.08
2019-04-05T09:48:48.146Z,25.87
2019-04-05T09:49:48.146Z,25.67
2019-04-05T09:50:48.125Z,25.85
2019-04-05T09:51:48.149Z,25.15
2019-04-05T09:52:48.110Z,25.38
2019-04-05T09:53:48.096Z,26.31
2019-04-05T09:54:48.081Z,27.19
2019-04-05T09:55:48.079Z,26.77
2019-04-05T09:56:48.070Z,25.94
2019-04-05T09:57:48.065Z,25.76
2019-04-05T09:58:48.042Z,25.64
2019-04-05T09:59:48.034Z,25.05
2019-04-05T10:00:48.021Z,24.94
2019-04-05T10:01:48.058Z,26.73
2019-04-05T10:02:48.008Z,27.62
2019-04-05T10:03:47.996Z,24.93
2019-04-05T10:04:47.987Z,24.81
2019-04-05T10:05:47.977Z,25.20
2019-04-05T10:06:47.968Z,25.51
2019-04-05T10:07:54.941Z,24.21
2019-04-05T10:08:48.985Z,23.90
2019-04-05T10:09:50.320Z,24.00
2019-04-05T10:10:47.923Z,24.37
2019-04-05T10:11:47.939Z,24.68
2019-04-05T10:12:47.906Z,24.38
2019-04-05T10:13:48.001Z,24.08
2019-04-05T10:14:47.925Z,22.67
2019-04-05T10:15:47.879Z,23.75
2019-04-05T10:16:57.825Z,23.62
2019-04-05T10:17:47.855Z,23.10
2019-04-05T10:18:47.846Z,21.41
2019-04-05T10:19:50.085Z,22.84
2019-04-05T10:20:47.875Z,22.44
2019-04-05T10:21:47.814Z,21.64
2019-04-05T10:22:47.810Z,22.44
2019-04-05T10:23:47.798Z,23.33
2019-04-05T10:24:47.790Z,21.83
2019-04-05T10:25:47.782Z,21.64
2019-04-05T10:26:48.276Z,22.63
2019-04-05T10:27:47.763Z,22.94
2019-04-05T10:28:47.755Z,24.34
2019-04-05T10:29:49.453Z,22.57
2019-04-05T10:30:47.730Z,23.37
2019-04-05T10:31:47.719Z,24.59
2019-04-05T10:32:47.762Z,22.96
2019-04-05T10:33:47.704Z,23.30
2019-04-05T10:34:47.697Z,25.60
2019-04-05T10:35:47.684Z,24.38
2019-04-05T10:36:47.678Z,23.46
2019-04-05T10:37:47.704Z,24.07
2019-04-05T10:38:47.650Z,24.16
2019-04-05T10:39:47.640Z,22.34
2019-04-05T10:40:47.637Z,22.25
2019-04-05T10:41:47.627Z,21.04
2019-04-05T10:42:47.620Z,21.42
2019-04-05T10:43:47.616Z,22.52
2019-04-05T10:44:47.597Z,22.14
2019-04-05T10:45:47.584Z,23.04
2019-04-05T10:46:47.583Z,21.72
2019-04-05T10:47:57.937Z,22.39
2019-04-05T10:48:47.605Z,22.39
2019-04-05T10:49:48.249Z,19.60
2019-04-05T10:50:47.536Z,21.91
2019-04-05T10:51:47.527Z,20.61
2019-04-05T10:52:47.520Z,21.31
2019-04-05T10:53:47.508Z,20.00
2019-04-05T10:54:47.548Z,20.50
2019-04-05T10:55:47.490Z,21.01
2019-04-05T10:56:47.480Z,20.09
2019-04-05T10:57:47.470Z,19.56
2019-04-05T10:58:47.458Z,18.66
2019-04-05T10:59:47.457Z,19.31
2019-04-05T11:00:47.474Z,20.23
2019-04-05T11:01:47.448Z,19.90
2019-04-05T11:02:47.433Z,20.62
2019-04-05T11:03:47.414Z,20.53
2019-04-05T11:04:47.400Z,21.01
2019-04-05T11:05:49.197Z,21.61
2019-04-05T11:06:47.423Z,21.31
2019-04-05T11:07:47.371Z,20.40
2019-04-05T11:08:47.366Z,20.29
2019-04-05T11:09:47.367Z,19.23
2019-04-05T11:10:47.358Z,20.32
2019-04-05T11:11:47.343Z,19.82
2019-04-05T11:12:49.731Z,20.53
2019-04-05T11:13:47.323Z,20.95
2019-04-05T11:14:47.312Z,19.53
2019-04-05T11:15:47.299Z,20.40
2019-04-05T11:16:57.751Z,19.31
2019-04-05T11:17:48.309Z,19.53
2019-04-05T11:18:57.756Z,19.12
2019-04-05T11:19:47.264Z,19.31
2019-04-05T11:20:49.706Z,19.71
2019-04-05T11:21:48.515Z,18.99
2019-04-05T11:22:49.989Z,19.59
2019-04-05T11:23:47.262Z,18.59
2019-04-05T11:24:47.215Z,19.49
2019-04-05T11:25:47.202Z,18.92
2019-04-05T11:26:47.198Z,19.92
2019-04-05T11:27:47.181Z,19.89
2019-04-05T11:28:47.183Z,18.46
2019-04-05T11:29:47.183Z,18.95
2019-04-05T11:30:47.167Z,17.64
2019-04-05T11:31:57.010Z,17.24
2019-04-05T11:32:48.130Z,17.37
2019-04-05T11:33:47.128Z,19.27
2019-04-05T11:34:47.115Z,18.59
2019-04-05T11:35:47.150Z,18.59
2019-04-05T11:36:47.096Z,18.37
2019-04-05T11:37:49.965Z,18.95
2019-04-05T11:38:50.053Z,17.76
2019-04-05T11:39:48.621Z,17.98
2019-04-05T11:40:47.065Z,17.96
2019-04-05T11:41:47.057Z,17.40
2019-04-05T11:42:47.044Z,18.10
2019-04-05T11:43:47.033Z,18.72
2019-04-05T11:44:47.025Z,18.51
2019-04-05T11:45:48.675Z,18.90
2019-04-05T11:46:49.161Z,17.69
2019-04-05T11:47:46.993Z,17.40
2019-04-05T11:48:46.980Z,18.14
2019-04-05T11:49:57.018Z,18.14
2019-04-05T11:50:46.966Z,18.21
2019-04-05T11:51:46.967Z,17.59
2019-04-05T11:52:46.952Z,18.79
2019-04-05T11:53:46.931Z,17.98
2019-04-05T11:54:46.921Z,17.00
2019-04-05T11:55:47.081Z,16.49
2019-04-05T11:56:46.908Z,16.89
2019-04-05T11:57:46.935Z,17.09
2019-04-05T11:58:48.664Z,17.10
2019-04-05T11:59:48.592Z,16.58
2019-04-05T12:00:46.866Z,16.89
2019-04-05T12:01:46.856Z,17.28
2019-04-05T12:02:46.845Z,16.49
2019-04-05T12:03:46.882Z,17.08
2019-04-05T12:04:46.834Z,16.88
2019-04-05T12:05:46.822Z,15.77
2019-04-05T12:06:46.820Z,16.95
2019-04-05T12:07:46.801Z,14.95
2019-04-05T12:08:46.792Z,15.35
2019-04-05T12:09:47.998Z,15.07
2019-04-05T12:10:46.771Z,17.08
2019-04-05T12:11:46.762Z,17.10
2019-04-05T12:12:46.749Z,15.58
2019-04-05T12:13:47.744Z,15.89
2019-04-05T12:14:46.737Z,16.08
2019-04-05T12:15:46.753Z,17.21
2019-04-05T12:16:46.720Z,16.00
2019-04-05T12:17:46.704Z,16.91
2019-04-05T12:18:46.697Z,16.59
2019-04-05T12:19:46.682Z,15.77
2019-04-05T12:21:00.380Z,16.89
2019-04-05T12:21:46.665Z,15.98
2019-04-05T12:22:46.656Z,14.37
2019-04-05T12:23:46.648Z,14.95
2019-04-05T12:24:47.688Z,14.64
2019-04-05T12:25:46.629Z,13.44
2019-04-05T12:26:46.661Z,15.05
2019-04-05T12:27:46.607Z,14.84
2019-04-05T12:28:46.599Z,14.86
2019-04-05T12:29:46.591Z,15.85
2019-04-05T12:30:46.583Z,16.45
2019-04-05T12:31:46.572Z,14.87
2019-04-05T12:32:48.897Z,15.58
2019-04-05T12:33:47.029Z,16.60
2019-04-05T12:34:46.543Z,16.01
2019-04-05T12:35:46.530Z,15.50
2019-04-05T12:36:46.522Z,15.30
2019-04-05T12:37:50.475Z,16.10
2019-04-05T12:38:46.510Z,16.31
2019-04-05T12:39:46.493Z,14.72
2019-04-05T12:40:46.489Z,17.14
2019-04-05T12:41:46.479Z,16.31
2019-04-05T12:42:46.467Z,16.00
2019-04-05T12:43:46.494Z,15.62
2019-04-05T12:44:46.450Z,17.05
2019-04-05T12:45:46.434Z,17.54
2019-04-05T12:46:46.429Z,16.44
2019-04-05T12:47:46.418Z,17.44
2019-04-05T12:48:46.626Z,17.54
2019-04-05T12:49:46.437Z,15.62
2019-04-05T12:50:46.393Z,17.00
2019-04-05T12:51:56.554Z,16.12
2019-04-05T12:52:46.370Z,15.83